sensor_id;sensor_type;location;lat;lon;timestamp;P1;durP1;ratioP1;P2;durP2;ratioP2
45316;SDS011;31053;55.870;37.592;2022-10-20T00:00:28;5.70;;;1.73;;
45316;SDS011;31053;55.870;37.592;2022-10-20T00:03:36;5.32;;;1.88;;
45316;SDS011;31053;55.870;37.592;2022-10-20T00:06:40;2.88;;;1.55;;
45316;SDS011;31053;55.870;37.592;2022-10-20T00:09:45;5.55;;;2.42;;
45316;SDS011;31053;55.870;37.592;2022-10-20T00:12:51;5.82;;;1.50;;
45316;SDS011;31053;55.870;37.592;2022-10-20T00:15:57;6.45;;;3.45;;
45316;SDS011;31053;55.870;37.592;2022-10-20T00:19:08;3.47;;;1.67;;
45316;SDS011;31053;55.870;37.592;2022-10-20T00:22:22;3.95;;;1.83;;
45316;SDS011;31053;55.870;37.592;2022-10-20T00:25:29;3.10;;;1.45;;
45316;SDS011;31053;55.870;37.592;2022-10-20T00:28:34;1.60;;;1.10;;
45316;SDS011;31053;55.870;37.592;2022-10-20T00:31:42;2.33;;;1.33;;
45316;SDS011;31053;55.870;37.592;2022-10-20T00:34:47;2.35;;;1.20;;
45316;SDS011;31053;55.870;37.592;2022-10-20T00:37:52;2.35;;;1.08;;
45316;SDS011;31053;55.870;37.592;2022-10-20T00:40:57;2.03;;;1.27;;
45316;SDS011;31053;55.870;37.592;2022-10-20T00:50:51;3.00;;;1.13;;
45316;SDS011;31053;55.870;37.592;2022-10-20T00:54:07;8.00;;;1.52;;
45316;SDS011;31053;55.870;37.592;2022-10-20T00:57:13;1.45;;;0.95;;
45316;SDS011;31053;55.870;37.592;2022-10-20T01:00:18;2.67;;;1.42;;
45316;SDS011;31053;55.870;37.592;2022-10-20T01:03:27;10.70;;;2.70;;
45316;SDS011;31053;55.870;37.592;2022-10-20T01:06:36;6.43;;;1.52;;
45316;SDS011;31053;55.870;37.592;2022-10-20T01:09:40;3.97;;;2.00;;
45316;SDS011;31053;55.870;37.592;2022-10-20T01:16:47;4.15;;;1.75;;
45316;SDS011;31053;55.870;37.592;2022-10-20T01:29:59;2.03;;;0.98;;
45316;SDS011;31053;55.870;37.592;2022-10-20T01:36:33;3.75;;;1.00;;
45316;SDS011;31053;55.870;37.592;2022-10-20T01:39:51;2.83;;;1.67;;
45316;SDS011;31053;55.870;37.592;2022-10-20T01:42:58;2.97;;;1.67;;
45316;SDS011;31053;55.870;37.592;2022-10-20T01:46:05;2.97;;;1.65;;
45316;SDS011;31053;55.870;37.592;2022-10-20T01:49:10;3.10;;;1.20;;
45316;SDS011;31053;55.870;37.592;2022-10-20T01:52:16;1.77;;;0.97;;
45316;SDS011;31053;55.870;37.592;2022-10-20T01:55:21;2.85;;;1.85;;
45316;SDS011;31053;55.870;37.592;2022-10-20T02:05:38;2.20;;;1.50;;
45316;SDS011;31053;55.870;37.592;2022-10-20T02:08:48;3.65;;;1.80;;
45316;SDS011;31053;55.870;37.592;2022-10-20T02:12:03;2.40;;;1.58;;
45316;SDS011;31053;55.870;37.592;2022-10-20T02:15:13;4.03;;;2.72;;
45316;SDS011;31053;55.870;37.592;2022-10-20T02:18:25;6.15;;;1.90;;
45316;SDS011;31053;55.870;37.592;2022-10-20T02:21:33;7.40;;;3.05;;
45316;SDS011;31053;55.870;37.592;2022-10-20T02:24:47;5.50;;;2.75;;
45316;SDS011;31053;55.870;37.592;2022-10-20T02:27:55;3.30;;;2.30;;
45316;SDS011;31053;55.870;37.592;2022-10-20T02:35:56;3.50;;;2.30;;
45316;SDS011;31053;55.870;37.592;2022-10-20T02:39:01;7.23;;;3.30;;
45316;SDS011;31053;55.870;37.592;2022-10-20T02:42:06;6.10;;;2.85;;
45316;SDS011;31053;55.870;37.592;2022-10-20T02:45:11;8.85;;;2.67;;
45316;SDS011;31053;55.870;37.592;2022-10-20T02:53:57;4.10;;;2.10;;
45316;SDS011;31053;55.870;37.592;2022-10-20T02:57:03;3.80;;;2.30;;
45316;SDS011;31053;55.870;37.592;2022-10-20T03:03:16;2.35;;;1.63;;
45316;SDS011;31053;55.870;37.592;2022-10-20T03:06:25;5.80;;;3.72;;
45316;SDS011;31053;55.870;37.592;2022-10-20T03:09:39;8.15;;;3.22;;
45316;SDS011;31053;55.870;37.592;2022-10-20T03:12:43;4.15;;;2.60;;
45316;SDS011;31053;55.870;37.592;2022-10-20T03:19:02;9.02;;;3.97;;
45316;SDS011;31053;55.870;37.592;2022-10-20T03:22:07;6.45;;;2.75;;
45316;SDS011;31053;55.870;37.592;2022-10-20T03:25:14;5.28;;;3.08;;
45316;SDS011;31053;55.870;37.592;2022-10-20T03:28:21;7.32;;;3.88;;
45316;SDS011;31053;55.870;37.592;2022-10-20T03:31:26;4.50;;;2.85;;
45316;SDS011;31053;55.870;37.592;2022-10-20T03:34:31;4.80;;;2.38;;
45316;SDS011;31053;55.870;37.592;2022-10-20T03:37:36;5.07;;;2.80;;
45316;SDS011;31053;55.870;37.592;2022-10-20T03:40:41;4.43;;;2.72;;
45316;SDS011;31053;55.870;37.592;2022-10-20T03:43:45;3.38;;;2.13;;
45316;SDS011;31053;55.870;37.592;2022-10-20T03:46:50;4.82;;;2.72;;
45316;SDS011;31053;55.870;37.592;2022-10-20T03:49:55;26.60;;;5.57;;
45316;SDS011;31053;55.870;37.592;2022-10-20T03:56:06;6.25;;;2.95;;
45316;SDS011;31053;55.870;37.592;2022-10-20T03:59:12;10.20;;;6.07;;
45316;SDS011;31053;55.870;37.592;2022-10-20T04:02:25;18.40;;;5.90;;
45316;SDS011;31053;55.870;37.592;2022-10-20T04:05:37;11.73;;;6.47;;
45316;SDS011;31053;55.870;37.592;2022-10-20T04:08:41;9.65;;;4.93;;
45316;SDS011;31053;55.870;37.592;2022-10-20T04:11:46;8.65;;;5.00;;
45316;SDS011;31053;55.870;37.592;2022-10-20T04:14:51;10.82;;;5.43;;
45316;SDS011;31053;55.870;37.592;2022-10-20T04:17:57;8.00;;;3.88;;
45316;SDS011;31053;55.870;37.592;2022-10-20T04:21:12;11.88;;;6.63;;
45316;SDS011;31053;55.870;37.592;2022-10-20T04:24:17;9.88;;;6.18;;
45316;SDS011;31053;55.870;37.592;2022-10-20T04:27:23;7.95;;;5.60;;
45316;SDS011;31053;55.870;37.592;2022-10-20T04:30:28;11.65;;;7.47;;
45316;SDS011;31053;55.870;37.592;2022-10-20T04:33:33;8.25;;;5.70;;
45316;SDS011;31053;55.870;37.592;2022-10-20T04:36:50;12.07;;;6.45;;
45316;SDS011;31053;55.870;37.592;2022-10-20T04:39:55;9.73;;;4.25;;
45316;SDS011;31053;55.870;37.592;2022-10-20T04:43:01;12.50;;;6.57;;
45316;SDS011;31053;55.870;37.592;2022-10-20T04:49:16;15.65;;;7.38;;
45316;SDS011;31053;55.870;37.592;2022-10-20T04:55:31;8.23;;;3.90;;
45316;SDS011;31053;55.870;37.592;2022-10-20T04:58:35;9.32;;;4.57;;
45316;SDS011;31053;55.870;37.592;2022-10-20T05:01:42;16.58;;;7.35;;
45316;SDS011;31053;55.870;37.592;2022-10-20T05:04:47;7.75;;;5.60;;
45316;SDS011;31053;55.870;37.592;2022-10-20T05:07:54;10.98;;;5.10;;
45316;SDS011;31053;55.870;37.592;2022-10-20T05:10:59;13.30;;;6.05;;
45316;SDS011;31053;55.870;37.592;2022-10-20T05:14:12;10.55;;;4.57;;
45316;SDS011;31053;55.870;37.592;2022-10-20T05:17:20;11.10;;;5.40;;
45316;SDS011;31053;55.870;37.592;2022-10-20T05:20:25;8.05;;;4.50;;
45316;SDS011;31053;55.870;37.592;2022-10-20T05:23:30;12.10;;;6.22;;
45316;SDS011;31053;55.870;37.592;2022-10-20T05:26:34;13.60;;;6.03;;
45316;SDS011;31053;55.870;37.592;2022-10-20T05:29:40;10.63;;;4.75;;
45316;SDS011;31053;55.870;37.592;2022-10-20T05:32:45;9.13;;;4.63;;
45316;SDS011;31053;55.870;37.592;2022-10-20T05:35:52;12.98;;;5.10;;
45316;SDS011;31053;55.870;37.592;2022-10-20T05:38:57;15.80;;;5.30;;
45316;SDS011;31053;55.870;37.592;2022-10-20T05:42:02;14.77;;;7.28;;
45316;SDS011;31053;55.870;37.592;2022-10-20T05:45:07;9.43;;;4.20;;
45316;SDS011;31053;55.870;37.592;2022-10-20T05:48:12;6.50;;;3.67;;
45316;SDS011;31053;55.870;37.592;2022-10-20T05:51:18;9.27;;;4.15;;
45316;SDS011;31053;55.870;37.592;2022-10-20T05:54:24;4.55;;;2.78;;
45316;SDS011;31053;55.870;37.592;2022-10-20T05:57:29;5.75;;;3.03;;
45316;SDS011;31053;55.870;37.592;2022-10-20T06:00:34;4.13;;;2.63;;
45316;SDS011;31053;55.870;37.592;2022-10-20T06:03:51;10.60;;;6.13;;
45316;SDS011;31053;55.870;37.592;2022-10-20T06:06:57;13.88;;;6.55;;
45316;SDS011;31053;55.870;37.592;2022-10-20T06:10:02;6.13;;;3.40;;
45316;SDS011;31053;55.870;37.592;2022-10-20T06:13:08;8.73;;;2.50;;
45316;SDS011;31053;55.870;37.592;2022-10-20T06:16:14;5.65;;;2.00;;
45316;SDS011;31053;55.870;37.592;2022-10-20T06:19:20;5.45;;;2.72;;
45316;SDS011;31053;55.870;37.592;2022-10-20T06:22:26;7.35;;;3.17;;
45316;SDS011;31053;55.870;37.592;2022-10-20T06:25:30;5.90;;;2.13;;
45316;SDS011;31053;55.870;37.592;2022-10-20T06:28:36;5.50;;;1.67;;
45316;SDS011;31053;55.870;37.592;2022-10-20T06:31:43;4.32;;;1.88;;
45316;SDS011;31053;55.870;37.592;2022-10-20T06:34:52;2.45;;;1.40;;
45316;SDS011;31053;55.870;37.592;2022-10-20T06:37:57;6.85;;;2.58;;
45316;SDS011;31053;55.870;37.592;2022-10-20T06:41:02;6.22;;;2.17;;
45316;SDS011;31053;55.870;37.592;2022-10-20T06:44:08;2.65;;;1.55;;
45316;SDS011;31053;55.870;37.592;2022-10-20T06:47:12;2.72;;;1.83;;
45316;SDS011;31053;55.870;37.592;2022-10-20T06:50:17;7.00;;;2.88;;
45316;SDS011;31053;55.870;37.592;2022-10-20T06:53:22;4.13;;;2.13;;
45316;SDS011;31053;55.870;37.592;2022-10-20T06:56:27;4.40;;;1.45;;
45316;SDS011;31053;55.870;37.592;2022-10-20T06:59:33;5.22;;;1.85;;
45316;SDS011;31053;55.870;37.592;2022-10-20T07:02:38;6.30;;;1.50;;
45316;SDS011;31053;55.870;37.592;2022-10-20T07:05:42;4.82;;;1.55;;
45316;SDS011;31053;55.870;37.592;2022-10-20T07:08:47;5.20;;;2.45;;
45316;SDS011;31053;55.870;37.592;2022-10-20T07:11:53;3.25;;;2.03;;
45316;SDS011;31053;55.870;37.592;2022-10-20T07:14:58;7.28;;;1.95;;
45316;SDS011;31053;55.870;37.592;2022-10-20T07:18:03;7.00;;;2.17;;
45316;SDS011;31053;55.870;37.592;2022-10-20T07:21:08;7.18;;;2.97;;
45316;SDS011;31053;55.870;37.592;2022-10-20T07:24:15;6.07;;;2.42;;
45316;SDS011;31053;55.870;37.592;2022-10-20T07:27:20;10.18;;;3.25;;
45316;SDS011;31053;55.870;37.592;2022-10-20T07:30:27;13.68;;;3.75;;
45316;SDS011;31053;55.870;37.592;2022-10-20T07:33:32;9.98;;;3.80;;
45316;SDS011;31053;55.870;37.592;2022-10-20T07:36:37;16.48;;;5.13;;
45316;SDS011;31053;55.870;37.592;2022-10-20T07:39:45;20.38;;;5.15;;
45316;SDS011;31053;55.870;37.592;2022-10-20T07:42:52;28.20;;;6.50;;
45316;SDS011;31053;55.870;37.592;2022-10-20T07:46:02;20.05;;;6.95;;
45316;SDS011;31053;55.870;37.592;2022-10-20T07:49:10;16.30;;;4.47;;
45316;SDS011;31053;55.870;37.592;2022-10-20T07:52:15;11.40;;;2.58;;
45316;SDS011;31053;55.870;37.592;2022-10-20T07:55:25;10.98;;;4.55;;
45316;SDS011;31053;55.870;37.592;2022-10-20T07:58:29;9.52;;;3.15;;
45316;SDS011;31053;55.870;37.592;2022-10-20T08:01:34;5.97;;;3.17;;
45316;SDS011;31053;55.870;37.592;2022-10-20T08:04:39;10.43;;;4.50;;
45316;SDS011;31053;55.870;37.592;2022-10-20T08:07:45;8.40;;;3.23;;
45316;SDS011;31053;55.870;37.592;2022-10-20T08:10:49;4.53;;;2.53;;
45316;SDS011;31053;55.870;37.592;2022-10-20T08:13:56;9.50;;;4.53;;
45316;SDS011;31053;55.870;37.592;2022-10-20T08:17:01;10.02;;;2.28;;
45316;SDS011;31053;55.870;37.592;2022-10-20T08:20:06;4.57;;;2.42;;
45316;SDS011;31053;55.870;37.592;2022-10-20T08:23:12;5.10;;;2.50;;
45316;SDS011;31053;55.870;37.592;2022-10-20T08:26:19;2.47;;;1.40;;
45316;SDS011;31053;55.870;37.592;2022-10-20T08:29:27;2.42;;;1.08;;
45316;SDS011;31053;55.870;37.592;2022-10-20T08:32:32;3.15;;;1.58;;
45316;SDS011;31053;55.870;37.592;2022-10-20T08:35:37;5.05;;;1.27;;
45316;SDS011;31053;55.870;37.592;2022-10-20T08:38:42;2.30;;;1.23;;
45316;SDS011;31053;55.870;37.592;2022-10-20T08:41:47;3.85;;;1.67;;
45316;SDS011;31053;55.870;37.592;2022-10-20T08:44:53;6.82;;;1.70;;
45316;SDS011;31053;55.870;37.592;2022-10-20T08:48:02;3.47;;;1.13;;
45316;SDS011;31053;55.870;37.592;2022-10-20T08:51:09;5.40;;;1.33;;
45316;SDS011;31053;55.870;37.592;2022-10-20T08:54:35;8.27;;;2.72;;
45316;SDS011;31053;55.870;37.592;2022-10-20T08:57:39;3.63;;;1.63;;
45316;SDS011;31053;55.870;37.592;2022-10-20T09:00:44;5.30;;;1.98;;
45316;SDS011;31053;55.870;37.592;2022-10-20T09:03:56;7.15;;;2.25;;
45316;SDS011;31053;55.870;37.592;2022-10-20T09:07:04;2.92;;;1.88;;
45316;SDS011;31053;55.870;37.592;2022-10-20T09:10:24;5.95;;;2.67;;
45316;SDS011;31053;55.870;37.592;2022-10-20T09:13:35;6.70;;;4.03;;
45316;SDS011;31053;55.870;37.592;2022-10-20T09:16:40;3.45;;;1.88;;
45316;SDS011;31053;55.870;37.592;2022-10-20T09:19:51;4.70;;;2.70;;
45316;SDS011;31053;55.870;37.592;2022-10-20T09:22:58;6.65;;;2.40;;
45316;SDS011;31053;55.870;37.592;2022-10-20T09:26:03;3.20;;;1.50;;
45316;SDS011;31053;55.870;37.592;2022-10-20T09:29:09;3.10;;;1.50;;
45316;SDS011;31053;55.870;37.592;2022-10-20T09:32:17;14.77;;;3.63;;
45316;SDS011;31053;55.870;37.592;2022-10-20T09:35:43;3.42;;;1.52;;
45316;SDS011;31053;55.870;37.592;2022-10-20T09:38:50;3.25;;;1.88;;
45316;SDS011;31053;55.870;37.592;2022-10-20T09:41:59;3.50;;;1.90;;
45316;SDS011;31053;55.870;37.592;2022-10-20T09:45:11;1.55;;;1.10;;
45316;SDS011;31053;55.870;37.592;2022-10-20T09:48:40;1.83;;;0.90;;
45316;SDS011;31053;55.870;37.592;2022-10-20T09:51:50;2.22;;;1.00;;
45316;SDS011;31053;55.870;37.592;2022-10-20T09:54:59;2.30;;;0.95;;
45316;SDS011;31053;55.870;37.592;2022-10-20T09:58:25;4.22;;;1.13;;
45316;SDS011;31053;55.870;37.592;2022-10-20T10:01:31;4.80;;;1.80;;
45316;SDS011;31053;55.870;37.592;2022-10-20T10:04:37;2.35;;;1.30;;
45316;SDS011;31053;55.870;37.592;2022-10-20T10:07:42;5.38;;;0.75;;
45316;SDS011;31053;55.870;37.592;2022-10-20T10:14:22;3.28;;;0.93;;
45316;SDS011;31053;55.870;37.592;2022-10-20T10:17:30;2.83;;;1.33;;
45316;SDS011;31053;55.870;37.592;2022-10-20T10:20:39;6.80;;;1.83;;
45316;SDS011;31053;55.870;37.592;2022-10-20T10:23:56;3.85;;;0.95;;
45316;SDS011;31053;55.870;37.592;2022-10-20T10:27:03;3.28;;;0.90;;
45316;SDS011;31053;55.870;37.592;2022-10-20T10:30:31;2.40;;;0.70;;
45316;SDS011;31053;55.870;37.592;2022-10-20T10:33:37;2.85;;;1.27;;
45316;SDS011;31053;55.870;37.592;2022-10-20T10:36:42;2.20;;;0.80;;
45316;SDS011;31053;55.870;37.592;2022-10-20T10:39:47;5.72;;;1.00;;
45316;SDS011;31053;55.870;37.592;2022-10-20T10:43:26;5.10;;;2.78;;
45316;SDS011;31053;55.870;37.592;2022-10-20T10:46:36;2.45;;;1.02;;
45316;SDS011;31053;55.870;37.592;2022-10-20T10:50:02;2.88;;;1.42;;
45316;SDS011;31053;55.870;37.592;2022-10-20T10:53:35;4.03;;;1.40;;
45316;SDS011;31053;55.870;37.592;2022-10-20T10:56:50;1.75;;;0.75;;
45316;SDS011;31053;55.870;37.592;2022-10-20T11:00:06;6.15;;;0.90;;
45316;SDS011;31053;55.870;37.592;2022-10-20T11:03:23;3.10;;;0.90;;
45316;SDS011;31053;55.870;37.592;2022-10-20T11:23:41;2.42;;;0.95;;
45316;SDS011;31053;55.870;37.592;2022-10-20T11:26:52;2.63;;;0.90;;
45316;SDS011;31053;55.870;37.592;2022-10-20T11:30:10;4.65;;;1.02;;
45316;SDS011;31053;55.870;37.592;2022-10-20T11:33:25;2.92;;;1.45;;
45316;SDS011;31053;55.870;37.592;2022-10-20T11:36:44;6.43;;;1.50;;
45316;SDS011;31053;55.870;37.592;2022-10-20T11:39:56;5.00;;;2.25;;
45316;SDS011;31053;55.870;37.592;2022-10-20T11:43:07;4.20;;;1.70;;
45316;SDS011;31053;55.870;37.592;2022-10-20T11:46:22;4.73;;;2.20;;
45316;SDS011;31053;55.870;37.592;2022-10-20T11:49:33;6.53;;;1.20;;
45316;SDS011;31053;55.870;37.592;2022-10-20T11:56:05;1.17;;;0.88;;
45316;SDS011;31053;55.870;37.592;2022-10-20T12:06:18;1.95;;;0.95;;
45316;SDS011;31053;55.870;37.592;2022-10-20T12:27:02;4.78;;;2.42;;
45316;SDS011;31053;55.870;37.592;2022-10-20T12:36:53;4.05;;;1.08;;
45316;SDS011;31053;55.870;37.592;2022-10-20T12:40:50;1.20;;;0.82;;
45316;SDS011;31053;55.870;37.592;2022-10-20T12:44:03;2.60;;;0.80;;
45316;SDS011;31053;55.870;37.592;2022-10-20T12:47:18;1.13;;;0.63;;
45316;SDS011;31053;55.870;37.592;2022-10-20T12:50:37;3.17;;;1.25;;
45316;SDS011;31053;55.870;37.592;2022-10-20T12:53:42;1.63;;;1.00;;
45316;SDS011;31053;55.870;37.592;2022-10-20T12:56:58;3.08;;;1.38;;
45316;SDS011;31053;55.870;37.592;2022-10-20T13:06:53;0.68;;;0.55;;
45316;SDS011;31053;55.870;37.592;2022-10-20T13:09:58;1.08;;;0.60;;
45316;SDS011;31053;55.870;37.592;2022-10-20T13:16:23;2.88;;;0.70;;
45316;SDS011;31053;55.870;37.592;2022-10-20T13:19:51;2.10;;;0.77;;
45316;SDS011;31053;55.870;37.592;2022-10-20T13:23:00;1.50;;;0.55;;
45316;SDS011;31053;55.870;37.592;2022-10-20T13:26:30;1.05;;;0.73;;
45316;SDS011;31053;55.870;37.592;2022-10-20T13:29:58;9.73;;;0.55;;
45316;SDS011;31053;55.870;37.592;2022-10-20T13:33:11;3.78;;;0.90;;
45316;SDS011;31053;55.870;37.592;2022-10-20T13:36:45;3.20;;;0.57;;
45316;SDS011;31053;55.870;37.592;2022-10-20T13:43:33;3.88;;;0.85;;
45316;SDS011;31053;55.870;37.592;2022-10-20T13:50:46;10.52;;;1.25;;
45316;SDS011;31053;55.870;37.592;2022-10-20T13:54:02;2.25;;;1.10;;
45316;SDS011;31053;55.870;37.592;2022-10-20T14:00:35;4.13;;;0.98;;
45316;SDS011;31053;55.870;37.592;2022-10-20T14:03:42;6.57;;;1.15;;
45316;SDS011;31053;55.870;37.592;2022-10-20T14:06:55;7.03;;;1.20;;
45316;SDS011;31053;55.870;37.592;2022-10-20T14:10:27;5.75;;;0.95;;
45316;SDS011;31053;55.870;37.592;2022-10-20T14:13:57;3.55;;;0.93;;
45316;SDS011;31053;55.870;37.592;2022-10-20T14:17:05;5.90;;;0.98;;
45316;SDS011;31053;55.870;37.592;2022-10-20T14:20:25;5.40;;;1.13;;
45316;SDS011;31053;55.870;37.592;2022-10-20T14:23:37;2.28;;;1.25;;
45316;SDS011;31053;55.870;37.592;2022-10-20T14:26:48;6.82;;;1.25;;
45316;SDS011;31053;55.870;37.592;2022-10-20T14:30:18;4.05;;;1.27;;
45316;SDS011;31053;55.870;37.592;2022-10-20T14:33:50;10.77;;;1.50;;
45316;SDS011;31053;55.870;37.592;2022-10-20T14:37:17;7.70;;;1.15;;
45316;SDS011;31053;55.870;37.592;2022-10-20T14:40:41;9.45;;;3.00;;
45316;SDS011;31053;55.870;37.592;2022-10-20T14:44:13;2.97;;;0.85;;
45316;SDS011;31053;55.870;37.592;2022-10-20T14:47:37;5.22;;;1.00;;
45316;SDS011;31053;55.870;37.592;2022-10-20T14:50:46;1.13;;;0.77;;
45316;SDS011;31053;55.870;37.592;2022-10-20T14:54:10;1.88;;;0.93;;
45316;SDS011;31053;55.870;37.592;2022-10-20T14:57:38;4.57;;;1.15;;
45316;SDS011;31053;55.870;37.592;2022-10-20T15:00:49;2.42;;;1.30;;
45316;SDS011;31053;55.870;37.592;2022-10-20T15:07:20;2.00;;;0.82;;
45316;SDS011;31053;55.870;37.592;2022-10-20T15:10:33;2.65;;;0.68;;
45316;SDS011;31053;55.870;37.592;2022-10-20T15:13:40;2.95;;;0.90;;
45316;SDS011;31053;55.870;37.592;2022-10-20T15:16:57;1.60;;;0.80;;
45316;SDS011;31053;55.870;37.592;2022-10-20T15:23:46;5.10;;;1.15;;
45316;SDS011;31053;55.870;37.592;2022-10-20T15:27:02;4.60;;;1.70;;
45316;SDS011;31053;55.870;37.592;2022-10-20T15:30:18;12.38;;;4.68;;
45316;SDS011;31053;55.870;37.592;2022-10-20T15:33:27;2.65;;;1.60;;
45316;SDS011;31053;55.870;37.592;2022-10-20T15:36:36;17.85;;;7.00;;
45316;SDS011;31053;55.870;37.592;2022-10-20T15:39:48;16.73;;;6.57;;
45316;SDS011;31053;55.870;37.592;2022-10-20T15:43:02;6.93;;;2.50;;
45316;SDS011;31053;55.870;37.592;2022-10-20T15:46:14;5.60;;;2.08;;
45316;SDS011;31053;55.870;37.592;2022-10-20T15:49:29;6.00;;;2.15;;
45316;SDS011;31053;55.870;37.592;2022-10-20T15:52:39;4.55;;;1.25;;
45316;SDS011;31053;55.870;37.592;2022-10-20T15:55:49;6.10;;;1.90;;
45316;SDS011;31053;55.870;37.592;2022-10-20T15:58:57;5.32;;;1.55;;
45316;SDS011;31053;55.870;37.592;2022-10-20T16:02:09;5.85;;;1.65;;
45316;SDS011;31053;55.870;37.592;2022-10-20T16:05:19;4.97;;;1.83;;
45316;SDS011;31053;55.870;37.592;2022-10-20T16:09:57;3.47;;;1.13;;
45316;SDS011;31053;55.870;37.592;2022-10-20T16:13:18;5.22;;;1.63;;
45316;SDS011;31053;55.870;37.592;2022-10-20T16:16:25;2.55;;;1.52;;
45316;SDS011;31053;55.870;37.592;2022-10-20T16:22:48;4.18;;;1.98;;
45316;SDS011;31053;55.870;37.592;2022-10-20T16:31:36;4.93;;;1.50;;
45316;SDS011;31053;55.870;37.592;2022-10-20T16:34:42;3.33;;;1.45;;
45316;SDS011;31053;55.870;37.592;2022-10-20T16:37:48;2.83;;;1.60;;
45316;SDS011;31053;55.870;37.592;2022-10-20T16:46:42;6.28;;;2.40;;
45316;SDS011;31053;55.870;37.592;2022-10-20T16:50:02;3.65;;;1.90;;
45316;SDS011;31053;55.870;37.592;2022-10-20T16:53:16;2.60;;;1.75;;
45316;SDS011;31053;55.870;37.592;2022-10-20T16:57:02;3.00;;;2.33;;
45316;SDS011;31053;55.870;37.592;2022-10-20T17:00:24;4.07;;;1.80;;
45316;SDS011;31053;55.870;37.592;2022-10-20T17:03:33;5.05;;;2.10;;
45316;SDS011;31053;55.870;37.592;2022-10-20T17:09:45;5.57;;;2.00;;
45316;SDS011;31053;55.870;37.592;2022-10-20T17:12:58;3.45;;;1.80;;
45316;SDS011;31053;55.870;37.592;2022-10-20T17:16:14;5.80;;;3.15;;
45316;SDS011;31053;55.870;37.592;2022-10-20T17:19:59;4.72;;;1.73;;
45316;SDS011;31053;55.870;37.592;2022-10-20T17:23:42;5.28;;;1.88;;
45316;SDS011;31053;55.870;37.592;2022-10-20T17:27:09;2.50;;;1.65;;
45316;SDS011;31053;55.870;37.592;2022-10-20T17:30:40;5.78;;;1.58;;
45316;SDS011;31053;55.870;37.592;2022-10-20T17:34:11;2.47;;;1.67;;
45316;SDS011;31053;55.870;37.592;2022-10-20T17:37:47;2.72;;;1.70;;
45316;SDS011;31053;55.870;37.592;2022-10-20T17:41:00;4.47;;;2.00;;
45316;SDS011;31053;55.870;37.592;2022-10-20T17:44:52;2.85;;;1.80;;
45316;SDS011;31053;55.870;37.592;2022-10-20T17:48:10;3.25;;;1.75;;
45316;SDS011;31053;55.870;37.592;2022-10-20T17:51:57;4.82;;;1.90;;
45316;SDS011;31053;55.870;37.592;2022-10-20T17:55:12;3.42;;;2.20;;
45316;SDS011;31053;55.870;37.592;2022-10-20T17:58:41;3.90;;;1.77;;
45316;SDS011;31053;55.870;37.592;2022-10-20T18:01:49;6.50;;;2.60;;
45316;SDS011;31053;55.870;37.592;2022-10-20T18:05:09;3.10;;;1.63;;
45316;SDS011;31053;55.870;37.592;2022-10-20T18:08:21;3.80;;;2.20;;
45316;SDS011;31053;55.870;37.592;2022-10-20T18:12:28;8.02;;;2.20;;
45316;SDS011;31053;55.870;37.592;2022-10-20T18:15:39;4.82;;;2.70;;
45316;SDS011;31053;55.870;37.592;2022-10-20T18:18:56;8.93;;;3.03;;
45316;SDS011;31053;55.870;37.592;2022-10-20T18:22:18;3.55;;;2.28;;
45316;SDS011;31053;55.870;37.592;2022-10-20T18:25:28;5.97;;;2.05;;
45316;SDS011;31053;55.870;37.592;2022-10-20T18:28:49;6.78;;;2.88;;
45316;SDS011;31053;55.870;37.592;2022-10-20T18:32:18;9.82;;;2.97;;
45316;SDS011;31053;55.870;37.592;2022-10-20T18:35:57;3.38;;;2.05;;
45316;SDS011;31053;55.870;37.592;2022-10-20T18:39:19;5.45;;;2.45;;
45316;SDS011;31053;55.870;37.592;2022-10-20T18:46:52;3.63;;;2.17;;
45316;SDS011;31053;55.870;37.592;2022-10-20T18:50:01;10.23;;;3.30;;
45316;SDS011;31053;55.870;37.592;2022-10-20T18:53:27;12.05;;;2.38;;
45316;SDS011;31053;55.870;37.592;2022-10-20T18:56:33;4.18;;;2.50;;
45316;SDS011;31053;55.870;37.592;2022-10-20T19:00:20;5.75;;;2.33;;
45316;SDS011;31053;55.870;37.592;2022-10-20T19:03:37;3.08;;;1.98;;
45316;SDS011;31053;55.870;37.592;2022-10-20T19:06:45;2.33;;;1.58;;
45316;SDS011;31053;55.870;37.592;2022-10-20T19:09:54;3.45;;;2.08;;
45316;SDS011;31053;55.870;37.592;2022-10-20T19:13:05;4.95;;;2.10;;
45316;SDS011;31053;55.870;37.592;2022-10-20T19:16:13;4.13;;;2.15;;
45316;SDS011;31053;55.870;37.592;2022-10-20T19:19:26;2.97;;;1.63;;
45316;SDS011;31053;55.870;37.592;2022-10-20T19:22:34;7.55;;;1.50;;
45316;SDS011;31053;55.870;37.592;2022-10-20T19:25:44;3.63;;;2.60;;
45316;SDS011;31053;55.870;37.592;2022-10-20T19:28:53;5.57;;;1.70;;
45316;SDS011;31053;55.870;37.592;2022-10-20T19:32:25;3.30;;;1.80;;
45316;SDS011;31053;55.870;37.592;2022-10-20T19:35:36;4.18;;;1.88;;
45316;SDS011;31053;55.870;37.592;2022-10-20T19:39:05;1.85;;;1.00;;
45316;SDS011;31053;55.870;37.592;2022-10-20T19:42:33;3.40;;;1.70;;
45316;SDS011;31053;55.870;37.592;2022-10-20T19:45:43;9.35;;;0.80;;
45316;SDS011;31053;55.870;37.592;2022-10-20T19:49:15;2.75;;;1.30;;
45316;SDS011;31053;55.870;37.592;2022-10-20T19:52:56;3.63;;;1.30;;
45316;SDS011;31053;55.870;37.592;2022-10-20T19:56:07;2.08;;;0.73;;
45316;SDS011;31053;55.870;37.592;2022-10-20T19:59:30;1.42;;;1.13;;
45316;SDS011;31053;55.870;37.592;2022-10-20T20:02:35;1.10;;;0.70;;
45316;SDS011;31053;55.870;37.592;2022-10-20T20:05:54;5.00;;;2.45;;
45316;SDS011;31053;55.870;37.592;2022-10-20T20:10:21;3.60;;;0.70;;
45316;SDS011;31053;55.870;37.592;2022-10-20T20:14:16;7.03;;;2.05;;
45316;SDS011;31053;55.870;37.592;2022-10-20T20:17:27;3.75;;;1.63;;
45316;SDS011;31053;55.870;37.592;2022-10-20T20:20:45;8.02;;;3.22;;
45316;SDS011;31053;55.870;37.592;2022-10-20T20:24:09;3.25;;;1.17;;
45316;SDS011;31053;55.870;37.592;2022-10-20T20:27:15;1.27;;;1.05;;
45316;SDS011;31053;55.870;37.592;2022-10-20T20:30:29;1.00;;;0.90;;
45316;SDS011;31053;55.870;37.592;2022-10-20T20:33:40;3.58;;;1.58;;
45316;SDS011;31053;55.870;37.592;2022-10-20T20:36:48;2.95;;;1.40;;
45316;SDS011;31053;55.870;37.592;2022-10-20T20:39:53;2.75;;;1.02;;
45316;SDS011;31053;55.870;37.592;2022-10-20T20:43:04;5.35;;;1.00;;
45316;SDS011;31053;55.870;37.592;2022-10-20T20:46:29;1.05;;;0.80;;
45316;SDS011;31053;55.870;37.592;2022-10-20T20:49:36;2.88;;;1.67;;
45316;SDS011;31053;55.870;37.592;2022-10-20T20:52:43;1.42;;;0.88;;
45316;SDS011;31053;55.870;37.592;2022-10-20T20:55:52;1.83;;;1.20;;
45316;SDS011;31053;55.870;37.592;2022-10-20T20:59:03;1.15;;;1.05;;
45316;SDS011;31053;55.870;37.592;2022-10-20T21:02:16;1.52;;;1.30;;
45316;SDS011;31053;55.870;37.592;2022-10-20T21:05:37;3.35;;;0.98;;
45316;SDS011;31053;55.870;37.592;2022-10-20T21:08:47;32.38;;;15.30;;
45316;SDS011;31053;55.870;37.592;2022-10-20T21:11:57;14.02;;;6.80;;
45316;SDS011;31053;55.870;37.592;2022-10-20T21:15:01;10.93;;;5.32;;
45316;SDS011;31053;55.870;37.592;2022-10-20T21:18:08;6.70;;;3.10;;
45316;SDS011;31053;55.870;37.592;2022-10-20T21:21:31;4.18;;;1.40;;
45316;SDS011;31053;55.870;37.592;2022-10-20T21:24:37;2.80;;;1.55;;
45316;SDS011;31053;55.870;37.592;2022-10-20T21:27:45;2.83;;;1.58;;
45316;SDS011;31053;55.870;37.592;2022-10-20T21:30:51;1.60;;;1.02;;
45316;SDS011;31053;55.870;37.592;2022-10-20T21:33:59;7.18;;;3.70;;
45316;SDS011;31053;55.870;37.592;2022-10-20T21:37:09;3.08;;;1.30;;
45316;SDS011;31053;55.870;37.592;2022-10-20T21:40:23;2.80;;;1.60;;
45316;SDS011;31053;55.870;37.592;2022-10-20T21:43:31;7.22;;;3.15;;